Time;durP1;ratioP1;P1;durP2;ratioP2;P2;SDS_P1;SDS_P2;PMS_P1;PMS_P2;Temp;Humidity;BMP_temperature;BMP_pressure;BME280_temperature;BME280_humidity;BME280_pressure;Samples;Min_cycle;Max_cycle;Signal;HPM_P1;HPM_P2
2021/09/16 00:00:15;;;;;;;31.30;18.50;;;;;;;16.26;71.77;98790.16;111828;1202;99042;-70
2021/09/16 00:03:03;;;;;;;29.90;18.30;;;;;;;16.30;71.60;98788.30;111794;1209;114773;-70
2021/09/16 00:05:31;;;;;;;28.30;17.00;;;;;;;16.36;71.62;98793.10;111873;1208;98941;-71
2021/09/16 00:07:58;;;;;;;27.40;16.00;;;;;;;16.42;71.39;98790.38;111914;1209;107538;-71
2021/09/16 00:10:26;;;;;;;28.80;16.90;;;;;;;16.48;71.46;98792.61;111941;1202;98916;-70
2021/09/16 00:12:54;;;;;;;25.50;15.70;;;;;;;16.54;71.66;98791.80;111870;1206;99104;-71
2021/09/16 00:15:22;;;;;;;27.40;16.20;;;;;;;16.60;71.71;98793.55;111863;1209;112739;-71
2021/09/16 00:17:50;;;;;;;28.60;15.20;;;;;;;16.62;71.62;98789.77;111926;1201;99005;-70
2021/09/16 00:20:17;;;;;;;27.80;15.60;;;;;;;16.64;71.63;98791.67;111876;1209;107472;-71
2021/09/16 00:22:45;;;;;;;27.90;15.70;;;;;;;16.66;71.70;98789.88;111897;1209;98988;-70
2021/09/16 00:25:13;;;;;;;28.10;15.20;;;;;;;16.67;71.61;98788.48;111893;1209;99007;-70
2021/09/16 00:27:41;;;;;;;29.50;16.30;;;;;;;16.69;71.48;98789.22;111884;1208;112494;-70
2021/09/16 00:30:13;;;;;;;28.80;17.10;;;;;;;16.71;71.51;98787.45;111911;1210;99008;-70
2021/09/16 00:32:41;;;;;;;26.20;14.90;;;;;;;16.70;71.40;98791.25;111876;1208;107651;-72
2021/09/16 00:35:14;;;;;;;30.00;17.90;;;;;;;16.70;71.50;98787.69;111907;1208;98254;-70
2021/09/16 00:37:42;;;;;;;26.70;16.50;;;;;;;16.70;71.57;98782.89;111877;1201;98942;-68
2021/09/16 00:40:14;;;;;;;26.70;16.10;;;;;;;16.70;71.60;98778.59;111890;1209;112504;-70
2021/09/16 00:42:48;;;;;;;26.40;16.20;;;;;;;16.69;71.60;98775.80;111889;1208;98981;-69
2021/09/16 00:45:15;;;;;;;28.00;16.60;;;;;;;16.67;71.58;98773.46;111867;1208;107436;-70
2021/09/16 00:47:54;;;;;;;26.90;16.90;;;;;;;16.65;71.50;98773.71;111863;1202;99588;-70
2021/09/16 00:50:27;;;;;;;25.80;14.80;;;;;;;16.64;71.82;98770.93;111873;1201;99071;-70
2021/09/16 00:52:55;;;;;;;26.60;16.50;;;;;;;16.63;71.68;98772.87;111839;1209;112634;-70
2021/09/16 00:55:28;;;;;;;24.60;14.70;;;;;;;16.59;71.61;98767.87;111909;1208;99020;-70
2021/09/16 00:58:04;;;;;;;29.40;15.20;;;;;;;16.58;71.70;98765.98;111901;1209;107478;-70
2021/09/16 01:00:37;;;;;;;26.60;16.80;;;;;;;16.57;71.69;98768.04;111864;1209;99084;-71
2021/09/16 01:03:04;;;;;;;27.70;15.80;;;;;;;16.57;71.82;98763.02;111870;1202;99050;-70
2021/09/16 01:05:32;;;;;;;24.60;14.70;;;;;;;16.57;71.63;98766.24;111883;1208;112430;-71
2021/09/16 01:08:00;;;;;;;24.20;14.60;;;;;;;16.59;71.75;98761.56;111909;1204;99014;-71
2021/09/16 01:10:34;;;;;;;26.30;14.80;;;;;;;16.61;71.60;98759.60;111895;1209;107464;-72
2021/09/16 01:13:02;;;;;;;26.00;14.50;;;;;;;16.65;71.68;98757.20;111875;1202;99070;-71
2021/09/16 01:15:30;;;;;;;23.50;13.10;;;;;;;16.69;71.62;98754.45;111922;1208;98916;-70
2021/09/16 01:17:57;;;;;;;23.60;12.50;;;;;;;16.75;71.54;98758.19;111890;1202;112507;-70
2021/09/16 01:20:25;;;;;;;24.00;14.10;;;;;;;16.81;71.76;98757.88;111848;1209;99019;-69
2021/09/16 01:22:58;;;;;;;25.00;14.20;;;;;;;16.87;71.58;98761.05;111910;1208;107575;-70
2021/09/16 01:25:32;;;;;;;24.80;13.70;;;;;;;16.93;71.48;98755.28;111924;1206;98984;-70
2021/09/16 01:28:05;;;;;;;23.30;13.10;;;;;;;16.97;71.50;98757.20;111903;1201;98945;-70
2021/09/16 01:30:38;;;;;;;22.20;13.30;;;;;;;17.00;71.54;98757.23;111907;1209;111917;-70
2021/09/16 01:33:09;;;;;;;27.50;13.70;;;;;;;17.02;71.51;98755.96;111830;1208;98949;-69
2021/09/16 01:35:41;;;;;;;24.70;13.80;;;;;;;17.04;71.55;98750.95;111811;1209;107457;-71
2021/09/16 01:38:42;;;;;;;24.80;14.70;;;;;;;17.07;71.43;98747.88;111991;1206;635656;-71
2021/09/16 01:41:11;;;;;;;26.50;13.90;;;;;;;17.05;71.26;98744.41;113256;1196;93969;-70
2021/09/16 01:43:39;;;;;;;27.30;14.60;;;;;;;17.05;71.44;98739.34;113226;1196;93558;-70
2021/09/16 01:46:06;;;;;;;23.40;13.60;;;;;;;17.05;71.46;98740.55;113210;1196;106842;-71
2021/09/16 01:48:34;;;;;;;25.80;14.30;;;;;;;17.07;71.36;98737.90;113261;1196;94063;-70
2021/09/16 01:51:02;;;;;;;22.80;13.40;;;;;;;17.07;71.41;98735.75;113920;1192;107481;-70
2021/09/16 01:53:34;;;;;;;23.00;13.20;;;;;;;17.09;71.25;98734.46;113942;1192;94697;-70
2021/09/16 01:56:02;;;;;;;22.20;12.00;;;;;;;17.10;71.38;98733.30;113949;1193;93932;-71
2021/09/16 01:58:30;;;;;;;22.10;12.70;;;;;;;17.14;71.43;98734.63;113952;1192;107083;-70
2021/09/16 02:01:04;;;;;;;22.90;13.50;;;;;;;17.17;71.33;98730.23;113935;1192;94061;-70
2021/09/16 02:03:32;;;;;;;23.20;12.30;;;;;;;17.20;71.32;98726.16;113476;1193;106113;-68
2021/09/16 02:06:00;;;;;;;21.50;11.80;;;;;;;17.22;71.23;98725.54;113492;1193;94968;-71
2021/09/16 02:08:27;;;;;;;22.50;11.20;;;;;;;17.25;71.31;98722.39;113534;1193;94850;-70
2021/09/16 02:11:00;;;;;;;21.30;11.90;;;;;;;17.29;71.31;98724.14;113463;1193;108750;-70
2021/09/16 02:13:28;;;;;;;22.20;11.60;;;;;;;17.32;71.11;98716.26;113483;1193;93986;-70
2021/09/16 02:15:58;;;;;;;22.60;11.50;;;;;;;17.37;71.15;98720.39;113396;1193;107492;-70
2021/09/16 02:18:26;;;;;;;21.00;11.20;;;;;;;17.41;71.00;98715.31;113424;1193;93865;-70
2021/09/16 02:20:54;;;;;;;19.90;11.00;;;;;;;17.45;70.81;98715.38;113516;1193;94908;-69
2021/09/16 02:23:27;;;;;;;21.80;11.40;;;;;;;17.48;70.81;98712.06;113510;1193;108407;-68
2021/09/16 02:25:54;;;;;;;20.90;11.90;;;;;;;17.50;70.76;98711.70;113502;1193;94931;-71
2021/09/16 02:28:27;;;;;;;22.00;11.60;;;;;;;17.50;70.67;98712.50;113576;1193;107516;-70
2021/09/16 02:30:55;;;;;;;23.10;13.10;;;;;;;17.51;70.65;98708.14;113586;1193;94979;-70
2021/09/16 02:33:22;;;;;;;22.20;12.10;;;;;;;17.53;70.64;98704.50;113608;1193;94042;-71
2021/09/16 02:35:53;;;;;;;20.60;11.60;;;;;;;17.55;70.61;98703.94;113628;1193;107997;-69
2021/09/16 02:38:23;;;;;;;20.70;11.90;;;;;;;17.56;70.52;98697.39;113600;1193;93915;-67
2021/09/16 02:40:55;;;;;;;21.00;11.50;;;;;;;17.57;70.47;98698.20;113473;1193;107819;-70
2021/09/16 02:43:23;;;;;;;21.80;12.30;;;;;;;17.57;70.33;98696.20;113551;1187;94881;-69
2021/09/16 02:45:50;;;;;;;21.20;11.30;;;;;;;17.57;70.32;98693.91;113617;1193;94946;-70
2021/09/16 02:48:18;;;;;;;20.40;11.00;;;;;;;17.57;70.36;98695.33;113551;1193;108437;-70
2021/09/16 02:50:46;;;;;;;20.40;11.00;;;;;;;17.57;70.26;98698.92;113560;1192;94931;-70
2021/09/16 02:53:14;;;;;;;21.70;12.00;;;;;;;17.57;70.27;98695.13;113521;1193;107501;-70
2021/09/16 02:55:42;;;;;;;20.40;11.90;;;;;;;17.57;70.17;98696.00;113528;1193;94889;-69
2021/09/16 02:58:09;;;;;;;21.60;12.30;;;;;;;17.56;70.05;98697.15;113528;1193;94685;-69
2021/09/16 03:00:37;;;;;;;23.00;11.70;;;;;;;17.56;70.13;98696.31;113582;1193;109019;-68
2021/09/16 03:03:06;;;;;;;23.00;12.70;;;;;;;17.55;70.07;98693.31;113514;1192;94863;-69
2021/09/16 03:05:38;;;;;;;24.10;12.60;;;;;;;17.54;70.04;98692.07;113524;1193;107499;-68
2021/09/16 03:08:06;;;;;;;20.70;10.70;;;;;;;17.51;69.95;98688.27;113524;1193;94338;-70
2021/09/16 03:10:38;;;;;;;19.20;10.80;;;;;;;17.47;70.00;98683.83;113541;1193;94792;-69
2021/09/16 03:13:06;;;;;;;20.30;11.70;;;;;;;17.45;69.94;98682.48;113475;1193;108408;-70
2021/09/16 03:15:34;;;;;;;22.90;12.30;;;;;;;17.41;70.15;98683.21;113517;1193;94846;-70
2021/09/16 03:18:02;;;;;;;23.00;12.20;;;;;;;17.39;69.96;98680.95;113470;1193;107033;-71
2021/09/16 03:20:29;;;;;;;21.20;11.50;;;;;;;17.36;69.90;98684.27;113610;1193;94998;-71
2021/09/16 03:22:57;;;;;;;23.90;13.10;;;;;;;17.35;70.04;98685.44;113588;1193;95307;-70
2021/09/16 03:25:25;;;;;;;22.90;12.20;;;;;;;17.35;70.03;98681.95;113534;1193;108029;-70
2021/09/16 03:27:53;;;;;;;19.50;10.30;;;;;;;17.35;70.13;98678.31;113550;1193;94960;-70
2021/09/16 03:30:21;;;;;;;22.30;11.70;;;;;;;17.35;70.10;98675.64;113532;1193;107483;-70
2021/09/16 03:32:48;;;;;;;21.90;11.80;;;;;;;17.34;70.06;98674.11;113530;1193;94869;-69
2021/09/16 03:35:16;;;;;;;20.50;11.40;;;;;;;17.33;70.07;98671.48;113564;1193;94871;-70
2021/09/16 03:37:44;;;;;;;19.40;11.00;;;;;;;17.33;69.89;98672.46;113508;1193;107516;-69
2021/09/16 03:40:12;;;;;;;20.70;11.40;;;;;;;17.33;70.04;98669.98;113505;1193;94820;-68
2021/09/16 03:42:40;;;;;;;20.00;11.30;;;;;;;17.32;69.88;98668.58;113496;1193;107501;-70
2021/09/16 03:45:09;;;;;;;22.90;11.80;;;;;;;17.32;69.90;98664.81;113496;1193;94949;-68
2021/09/16 03:47:38;;;;;;;22.20;11.40;;;;;;;17.30;70.05;98662.05;113543;1193;95054;-71
2021/09/16 03:50:06;;;;;;;21.00;10.70;;;;;;;17.28;69.86;98661.88;113557;1193;108394;-71
2021/09/16 03:52:34;;;;;;;21.10;12.00;;;;;;;17.24;69.78;98657.48;113563;1193;93959;-70
2021/09/16 03:55:07;;;;;;;22.20;11.60;;;;;;;17.23;70.01;98657.94;113404;1193;107522;-70
2021/09/16 03:57:40;;;;;;;22.20;11.20;;;;;;;17.21;69.86;98658.84;113488;1193;94989;-70
2021/09/16 04:00:12;;;;;;;20.80;10.90;;;;;;;17.18;70.12;98656.77;113931;1192;95074;-72
2021/09/16 04:02:41;;;;;;;20.80;11.80;;;;;;;17.19;70.06;98659.44;113924;1192;107788;-70
2021/09/16 04:05:13;;;;;;;19.90;10.40;;;;;;;17.19;69.92;98659.41;113991;1192;93937;-70
2021/09/16 04:07:41;;;;;;;20.90;11.90;;;;;;;17.18;69.92;98661.32;113938;1192;107487;-70
2021/09/16 04:10:13;;;;;;;20.70;10.90;;;;;;;17.20;69.86;98665.96;113903;1192;95017;-71
2021/09/16 04:12:41;;;;;;;19.40;9.90;;;;;;;17.21;70.07;98662.02;113969;1192;94843;-71
2021/09/16 04:15:14;;;;;;;19.10;10.40;;;;;;;17.24;69.95;98659.92;113902;1192;108317;-71
2021/09/16 04:17:42;;;;;;;22.40;11.40;;;;;;;17.27;69.90;98663.27;113632;1193;94001;-70
2021/09/16 04:20:14;;;;;;;24.40;11.30;;;;;;;17.29;70.00;98665.52;113929;1192;107499;-71
2021/09/16 04:22:47;;;;;;;22.10;11.40;;;;;;;17.31;69.89;98667.27;113988;1192;94902;-70
2021/09/16 04:25:14;;;;;;;22.10;10.80;;;;;;;17.35;69.82;98665.42;113945;1192;94868;-70
2021/09/16 04:27:42;;;;;;;19.40;10.40;;;;;;;17.40;69.83;98666.16;113940;1193;108707;-70
2021/09/16 04:30:13;;;;;;;20.40;10.50;;;;;;;17.47;69.99;98663.84;113939;1193;94869;-70
2021/09/16 04:32:41;;;;;;;20.40;10.70;;;;;;;17.55;69.78;98665.98;113940;1193;107432;-71
2021/09/16 04:35:14;;;;;;;20.70;11.30;;;;;;;17.62;69.78;98664.15;113958;1192;94610;-70
2021/09/16 04:37:42;;;;;;;20.20;11.40;;;;;;;17.66;69.70;98666.74;113970;1192;93993;-70
2021/09/16 04:40:10;;;;;;;20.70;11.10;;;;;;;17.68;69.62;98665.05;113632;1193;108430;-69
2021/09/16 04:42:42;;;;;;;19.70;11.20;;;;;;;17.70;69.62;98660.89;113537;1192;94868;-70
2021/09/16 04:45:10;;;;;;;25.30;11.90;;;;;;;17.70;69.44;98661.93;113491;1193;107463;-70
2021/09/16 04:47:40;;;;;;;19.90;10.90;;;;;;;17.71;69.42;98661.70;113501;1193;94946;-70
2021/09/16 04:50:13;;;;;;;21.40;10.60;;;;;;;17.73;69.41;98663.54;113546;1193;93883;-71
2021/09/16 04:52:40;;;;;;;19.80;11.20;;;;;;;17.74;69.47;98665.71;113490;1193;108424;-70
2021/09/16 04:55:09;;;;;;;20.10;10.30;;;;;;;17.74;69.30;98663.88;113452;1193;94879;-71
2021/09/16 04:57:42;;;;;;;19.80;10.90;;;;;;;17.76;69.22;98664.29;113468;1193;107477;-71
2021/09/16 05:00:14;;;;;;;21.50;11.20;;;;;;;17.76;69.35;98664.17;113493;1193;95496;-76
2021/09/16 05:02:42;;;;;;;20.50;11.20;;;;;;;17.81;69.30;98667.25;113557;1192;94824;-80
2021/09/16 05:05:13;;;;;;;19.90;10.30;;;;;;;17.85;69.30;98670.27;113470;1193;108307;-81
2021/09/16 05:07:41;;;;;;;23.80;11.30;;;;;;;17.88;69.23;98665.06;113522;1193;93918;-80
2021/09/16 05:10:10;;;;;;;20.30;11.40;;;;;;;17.92;69.25;98667.55;113532;1193;107487;-78
2021/09/16 05:12:37;;;;;;;20.10;10.70;;;;;;;17.94;69.14;98669.09;113401;1193;93912;-75
2021/09/16 05:15:11;;;;;;;21.00;10.50;;;;;;;17.99;69.29;98668.04;113592;1193;93998;-77
2021/09/16 05:17:38;;;;;;;20.00;11.10;;;;;;;18.04;69.26;98666.48;113544;1193;108419;-79
2021/09/16 05:20:07;;;;;;;20.30;10.70;;;;;;;18.07;69.26;98666.86;113353;1194;94978;-77
2021/09/16 05:22:34;;;;;;;22.40;11.20;;;;;;;18.11;69.07;98672.71;113508;1193;107459;-77
2021/09/16 05:25:04;;;;;;;23.20;11.40;;;;;;;18.13;69.17;98673.48;113486;1192;94986;-77
2021/09/16 05:27:32;;;;;;;23.90;11.10;;;;;;;18.17;69.13;98673.67;113462;1192;94957;-73
2021/09/16 05:30:01;;;;;;;20.10;10.60;;;;;;;18.20;69.15;98672.19;113393;1187;108451;-75
2021/09/16 05:32:29;;;;;;;19.40;10.90;;;;;;;18.24;69.04;98671.21;113394;1193;93930;-73
2021/09/16 05:34:56;;;;;;;22.80;11.40;;;;;;;18.29;69.11;98666.55;113403;1192;107173;-77
2021/09/16 05:37:24;;;;;;;19.20;10.40;;;;;;;18.34;69.02;98669.81;113450;1193;94854;-78
2021/09/16 05:40:00;;;;;;;22.50;10.60;;;;;;;18.40;68.96;98666.22;113530;1193;93886;-78
2021/09/16 05:42:28;;;;;;;21.00;10.40;;;;;;;18.46;68.99;98665.57;113849;1192;108453;-80
2021/09/16 05:45:01;;;;;;;21.90;10.70;;;;;;;18.52;68.82;98665.43;113942;1192;93980;-81
2021/09/16 05:47:29;;;;;;;19.10;10.40;;;;;;;18.58;68.86;98662.90;113954;1192;107722;-78
2021/09/16 05:50:04;;;;;;;20.50;10.20;;;;;;;18.65;68.82;98660.23;113978;1192;96611;-74
2021/09/16 05:52:31;;;;;;;21.30;10.80;;;;;;;18.72;68.66;98656.50;113486;1193;96262;-76
2021/09/16 05:54:59;;;;;;;20.00;10.40;;;;;;;18.79;68.59;98657.51;113608;1192;109411;-74
2021/09/16 05:57:27;;;;;;;20.90;10.60;;;;;;;18.87;68.69;98655.27;113430;1193;96222;-77
2021/09/16 05:59:55;;;;;;;18.80;9.60;;;;;;;18.93;68.57;98657.25;113383;1193;107516;-82
2021/09/16 06:02:23;;;;;;;23.70;11.00;;;;;;;18.98;68.48;98656.27;113572;1193;96215;-76
2021/09/16 06:04:50;;;;;;;20.50;10.30;;;;;;;19.03;68.53;98657.36;113349;1193;94890;-76
2021/09/16 06:07:18;;;;;;;20.90;11.40;;;;;;;19.07;68.44;98654.83;113189;1193;109802;-74
2021/09/16 06:09:46;;;;;;;21.00;11.00;;;;;;;19.13;68.42;98659.84;113258;1193;96223;-75
2021/09/16 06:12:14;;;;;;;21.60;10.50;;;;;;;19.19;68.37;98657.17;113332;1193;107452;-76
2021/09/16 06:14:43;;;;;;;19.80;10.20;;;;;;;19.27;68.27;98657.38;113380;1193;96291;-78
2021/09/16 06:17:12;;;;;;;24.80;10.80;;;;;;;19.34;68.17;98658.30;113554;1193;95247;-81
2021/09/16 06:19:40;;;;;;;21.30;10.90;;;;;;;19.41;68.13;98664.55;113451;1193;111299;-77
2021/09/16 06:22:08;;;;;;;21.90;10.60;;;;;;;19.48;68.18;98665.52;113276;1193;96378;-81
2021/09/16 06:24:36;;;;;;;19.10;10.00;;;;;;;19.54;67.99;98667.16;113372;1193;107438;-81
2021/09/16 06:27:04;;;;;;;18.60;9.80;;;;;;;19.58;67.89;98665.24;113367;1193;96238;-78
2021/09/16 06:29:34;;;;;;;22.90;10.70;;;;;;;19.61;67.91;98661.45;113566;1193;95109;-76
2021/09/16 06:32:04;;;;;;;18.90;9.90;;;;;;;19.66;67.90;98666.10;113369;1193;109819;-74
2021/09/16 06:34:32;;;;;;;19.00;10.10;;;;;;;19.71;67.81;98663.36;113423;1193;96300;-79
2021/09/16 06:37:00;;;;;;;18.20;9.80;;;;;;;19.78;67.82;98671.35;113332;1193;107753;-81
2021/09/16 06:39:28;;;;;;;17.90;9.60;;;;;;;19.84;67.71;98667.64;113310;1193;96258;-79
2021/09/16 06:41:55;;;;;;;18.80;9.70;;;;;;;19.88;67.64;98674.71;113583;1193;95454;-79
2021/09/16 06:44:23;;;;;;;20.50;10.60;;;;;;;19.94;67.51;98677.89;113603;1193;109812;-82
2021/09/16 06:46:52;;;;;;;18.60;9.80;;;;;;;19.99;67.55;98678.50;113459;1193;96192;-80
2021/09/16 06:49:21;;;;;;;21.90;11.00;;;;;;;20.06;67.60;98678.18;113598;1193;108380;-79
2021/09/16 06:51:49;;;;;;;20.00;9.90;;;;;;;20.14;67.44;98678.58;113917;1192;95152;-77
2021/09/16 06:54:17;;;;;;;23.20;10.20;;;;;;;20.19;67.26;98672.05;113845;1192;93905;-88
2021/09/16 06:56:44;;;;;;;18.70;9.50;;;;;;;20.25;67.32;98674.90;113876;1193;109741;-69
2021/09/16 06:59:12;;;;;;;20.50;10.90;;;;;;;20.34;67.09;98675.66;113864;1192;96169;-68
2021/09/16 07:01:40;;;;;;;17.90;9.50;;;;;;;20.44;66.86;98680.70;113775;1192;110745;-68
2021/09/16 07:04:08;;;;;;;20.80;9.80;;;;;;;20.54;66.52;98678.89;113812;1192;96297;-71
2021/09/16 07:06:37;;;;;;;20.40;10.60;;;;;;;20.65;66.28;98685.48;113595;1192;96836;-69
2021/09/16 07:09:05;;;;;;;17.30;9.20;;;;;;;20.77;66.49;98689.08;113628;1193;109608;-69
2021/09/16 07:11:33;;;;;;;18.60;9.40;;;;;;;20.91;66.51;98693.94;113524;1193;96199;-69
2021/09/16 07:14:01;;;;;;;19.80;9.70;;;;;;;20.99;66.40;98690.91;113765;1193;108015;-70
2021/09/16 07:16:29;;;;;;;19.30;9.60;;;;;;;21.07;66.44;98691.19;113842;1192;96226;-69
2021/09/16 07:18:57;;;;;;;22.40;9.50;;;;;;;21.16;66.38;98695.17;113818;1193;96136;-70
2021/09/16 07:21:25;;;;;;;21.10;9.30;;;;;;;21.25;66.00;98692.27;113697;1184;110340;-71
2021/09/16 07:23:53;;;;;;;18.40;9.40;;;;;;;21.29;65.71;98694.52;113570;1192;96289;-69
2021/09/16 07:26:25;;;;;;;19.30;9.10;;;;;;;21.32;65.37;98693.52;113549;1193;108985;-70
2021/09/16 07:28:59;;;;;;;20.40;9.80;;;;;;;21.38;65.55;98693.34;113653;1192;96139;-71
2021/09/16 07:31:29;;;;;;;16.40;9.00;;;;;;;21.49;65.56;98691.83;113728;1186;96159;-67
2021/09/16 07:33:58;;;;;;;17.20;8.60;;;;;;;21.59;65.39;98695.17;113654;1192;109346;-68
2021/09/16 07:36:26;;;;;;;18.30;9.40;;;;;;;21.65;64.93;98693.72;114387;1192;96212;-69
2021/09/16 07:38:54;;;;;;;23.50;10.10;;;;;;;21.68;64.91;98692.25;113786;1193;107523;-67
2021/09/16 07:41:22;;;;;;;20.90;10.40;;;;;;;21.74;64.72;98692.87;113910;1193;96226;-69
2021/09/16 07:43:50;;;;;;;17.90;9.30;;;;;;;21.83;64.62;98693.19;113823;1193;96310;-69
2021/09/16 07:46:18;;;;;;;17.80;9.30;;;;;;;21.96;64.78;98692.48;113794;1192;110317;-71
2021/09/16 07:48:48;;;;;;;19.10;9.80;;;;;;;22.13;64.49;98691.70;113745;1192;96174;-71
2021/09/16 07:51:16;;;;;;;18.60;9.70;;;;;;;22.26;64.36;98693.38;113661;1193;108291;-70
2021/09/16 07:53:43;;;;;;;18.70;9.90;;;;;;;22.53;64.42;98693.80;114192;1191;94248;-70
2021/09/16 07:56:12;;;;;;;17.10;9.00;;;;;;;22.83;64.22;98693.69;113862;1192;96305;-71
2021/09/16 07:58:43;;;;;;;19.50;9.30;;;;;;;23.01;63.94;98693.73;113747;1192;109942;-70
2021/09/16 08:01:12;;;;;;;18.90;9.70;;;;;;;23.18;63.57;98693.35;113805;1192;97003;-69
2021/09/16 08:03:41;;;;;;;19.00;9.10;;;;;;;23.18;63.54;98690.10;113718;1193;107527;-70
2021/09/16 08:06:10;;;;;;;20.80;9.60;;;;;;;23.18;63.57;98690.39;113985;1192;96382;-69
2021/09/16 08:08:37;;;;;;;17.80;9.50;;;;;;;23.23;63.44;98693.09;113740;1193;96321;-71
2021/09/16 08:11:06;;;;;;;19.60;9.40;;;;;;;23.24;63.16;98696.94;113930;1184;109652;-69
2021/09/16 08:13:34;;;;;;;18.80;9.70;;;;;;;23.24;63.01;98697.86;113880;1192;95094;-71
2021/09/16 08:16:02;;;;;;;20.10;9.80;;;;;;;23.24;63.03;98697.48;113887;1193;107537;-70
2021/09/16 08:18:30;;;;;;;19.40;8.70;;;;;;;23.21;62.83;98698.05;113797;1192;96258;-69
2021/09/16 08:20:58;;;;;;;20.60;9.70;;;;;;;23.17;62.50;98701.28;113658;1192;96273;-69
2021/09/16 08:23:26;;;;;;;18.70;9.10;;;;;;;23.11;62.55;98700.45;113757;1192;110396;-70
2021/09/16 08:25:55;;;;;;;19.50;9.90;;;;;;;23.08;62.40;98703.73;114675;1192;96197;-70
2021/09/16 08:28:23;;;;;;;18.40;9.60;;;;;;;23.08;62.43;98700.27;113858;1193;107560;-70
2021/09/16 08:30:51;;;;;;;20.60;9.20;;;;;;;23.09;62.12;98699.98;113894;1192;96308;-69
2021/09/16 08:33:21;;;;;;;18.50;9.10;;;;;;;23.10;61.98;98698.86;113959;1193;96303;-70
2021/09/16 08:35:50;;;;;;;21.90;9.90;;;;;;;23.13;61.97;98699.64;113844;1192;108489;-69
2021/09/16 08:38:18;;;;;;;17.40;9.20;;;;;;;23.13;61.67;98702.46;113890;1192;95506;-69
2021/09/16 08:40:46;;;;;;;25.00;10.60;;;;;;;23.12;61.46;98700.26;113912;1192;106549;-69
2021/09/16 08:43:14;;;;;;;19.20;9.80;;;;;;;23.16;61.68;98700.19;113900;1191;94350;-72
2021/09/16 08:45:42;;;;;;;19.30;9.10;;;;;;;23.24;61.33;98699.08;113977;1192;96305;-69
2021/09/16 08:48:10;;;;;;;22.50;9.90;;;;;;;23.35;61.29;98698.98;113751;1192;109875;-70
2021/09/16 08:50:38;;;;;;;17.30;9.50;;;;;;;23.45;61.33;98702.48;113927;1192;97004;-70
2021/09/16 08:53:07;;;;;;;21.10;9.60;;;;;;;23.52;61.19;98700.61;113934;1192;108556;-70
2021/09/16 08:55:36;;;;;;;18.70;10.00;;;;;;;23.60;60.98;98699.64;113921;1192;96364;-69
2021/09/16 08:58:09;;;;;;;17.80;9.00;;;;;;;23.64;60.65;98698.73;113903;1192;96294;-71
2021/09/16 09:00:38;;;;;;;16.90;9.20;;;;;;;23.63;60.46;98699.14;113925;1193;109819;-70
2021/09/16 09:03:07;;;;;;;18.90;9.40;;;;;;;23.62;60.39;98701.11;113941;1184;96264;-71
2021/09/16 09:05:36;;;;;;;20.30;9.40;;;;;;;23.60;60.30;98699.21;113761;1192;106367;-70
2021/09/16 09:08:04;;;;;;;17.50;9.40;;;;;;;23.54;59.86;98697.16;113912;1192;96296;-71
2021/09/16 09:10:50;;;;;;;17.00;8.70;;;;;;;23.45;59.82;98699.89;113957;1192;96269;-72
2021/09/16 09:13:34;;;;;;;19.70;9.90;;;;;;;23.39;59.86;98697.95;113980;1193;109779;-70
2021/09/16 09:16:07;;;;;;;20.10;9.20;;;;;;;23.35;59.82;98696.94;113974;1192;96204;-70
2021/09/16 09:18:51;;;;;;;19.40;9.90;;;;;;;23.28;59.38;98694.91;113872;1192;107544;-70
2021/09/16 09:21:20;;;;;;;19.20;9.20;;;;;;;23.27;59.69;98690.73;113976;1190;96389;-70
2021/09/16 09:23:54;;;;;;;18.50;9.50;;;;;;;23.30;59.71;98690.59;113968;1190;94737;-70
2021/09/16 09:26:34;;;;;;;21.50;10.50;;;;;;;23.32;59.40;98693.71;113868;1191;109820;-70
2021/09/16 09:29:08;;;;;;;19.40;10.30;;;;;;;23.33;59.20;98694.52;113955;1191;96174;-69
2021/09/16 09:32:05;;;;;;;19.60;9.60;;;;;;;23.33;59.23;98695.98;113955;1191;107509;-70
2021/09/16 09:34:39;;;;;;;20.30;9.40;;;;;;;23.34;59.16;98690.89;113922;1190;96267;-71
2021/09/16 09:37:09;;;;;;;18.60;9.60;;;;;;;23.38;58.98;98695.12;113962;1191;96304;-69
2021/09/16 09:39:41;;;;;;;18.20;10.70;;;;;;;23.44;59.12;98696.45;113754;1193;108666;-69
2021/09/16 09:42:17;;;;;;;20.00;10.50;;;;;;;23.49;59.03;98695.98;113983;1191;96361;-70
2021/09/16 09:44:46;;;;;;;19.90;10.60;;;;;;;23.53;59.09;98694.95;113934;1193;107545;-70
2021/09/16 09:47:33;;;;;;;22.80;11.10;;;;;;;23.57;58.99;98695.80;113892;1191;94257;-72
2021/09/16 09:50:03;;;;;;;20.00;11.90;;;;;;;23.58;58.89;98701.22;113939;1191;96193;-69
2021/09/16 09:52:30;;;;;;;22.50;12.00;;;;;;;23.57;58.82;98700.89;113931;1192;109866;-70
2021/09/16 09:54:58;;;;;;;21.80;10.50;;;;;;;23.59;58.64;98703.23;113863;1193;93905;-71
2021/09/16 09:57:26;;;;;;;23.20;11.00;;;;;;;23.61;58.66;98705.04;113952;1192;107503;-69
2021/09/16 10:00:00;;;;;;;22.00;12.30;;;;;;;23.64;58.82;98702.44;113847;1191;94714;-70
2021/09/16 10:02:55;;;;;;;21.50;12.30;;;;;;;23.68;58.53;98706.59;113985;1191;96189;-71
2021/09/16 10:05:29;;;;;;;25.40;14.10;;;;;;;23.72;58.42;98701.98;113942;1192;110731;-71
2021/09/16 10:08:18;;;;;;;22.70;12.40;;;;;;;23.81;58.32;98699.80;113929;1191;93929;-69
2021/09/16 10:10:52;;;;;;;22.60;11.50;;;;;;;23.90;58.27;98697.21;113751;1192;107104;-69
2021/09/16 10:13:19;;;;;;;;;;;;;;;23.99;58.17;98698.33;113795;1190;96758;-71
2021/09/16 10:15:50;;;;;;;19.60;10.30;;;;;;;24.00;57.74;98698.64;113793;1183;94500;-70
2021/09/16 10:18:21;;;;;;;20.40;10.10;;;;;;;23.95;57.39;98696.52;113965;1193;109821;-70
2021/09/16 10:20:49;;;;;;;19.40;10.70;;;;;;;23.85;56.76;98692.64;113990;1192;96977;-71
2021/09/16 10:23:17;;;;;;;19.30;9.60;;;;;;;23.76;57.15;98692.16;113922;1191;107488;-70
2021/09/16 10:25:49;;;;;;;21.10;9.20;;;;;;;23.81;57.32;98695.58;113981;1190;94415;-70
2021/09/16 10:28:20;;;;;;;21.80;10.60;;;;;;;23.85;57.27;98699.17;113926;1191;96234;-69
2021/09/16 10:30:51;;;;;;;21.00;10.70;;;;;;;23.87;57.09;98700.41;113937;1193;109920;-68
2021/09/16 10:33:24;;;;;;;;;;;;;;;23.91;56.93;98700.52;114007;1191;96223;-70
2021/09/16 10:35:59;;;;;;;19.60;9.10;;;;;;;23.95;57.06;98703.41;113837;1192;107931;-71
2021/09/16 10:38:38;;;;;;;21.30;10.10;;;;;;;24.02;56.82;98704.33;113849;1183;96315;-70
2021/09/16 10:41:09;;;;;;;19.10;9.40;;;;;;;24.06;56.73;98710.50;113903;1191;96329;-71
2021/09/16 10:43:39;;;;;;;20.00;9.30;;;;;;;24.07;56.52;98705.77;113810;1191;109803;-70
2021/09/16 10:46:37;;;;;;;20.20;9.70;;;;;;;24.09;56.62;98703.93;113940;1192;96473;-71
2021/09/16 10:49:21;;;;;;;18.30;10.00;;;;;;;24.15;56.71;98704.83;113920;1192;107535;-71
2021/09/16 10:51:48;;;;;;;;;;;;;;;24.19;56.59;98704.58;113872;1190;96761;-71
2021/09/16 10:54:41;;;;;;;19.50;9.90;;;;;;;24.18;56.49;98703.78;113970;1192;96290;-70
2021/09/16 10:57:11;;;;;;;19.50;10.00;;;;;;;24.18;56.41;98704.95;113988;1191;109383;-71
2021/09/16 10:59:54;;;;;;;27.80;10.70;;;;;;;24.18;56.45;98700.98;113939;1193;96296;-71
2021/09/16 11:02:38;;;;;;;18.40;9.80;;;;;;;24.17;56.43;98701.60;113878;1192;107628;-70
2021/09/16 11:05:12;;;;;;;23.00;10.50;;;;;;;24.13;56.32;98701.45;113952;1190;94406;-69
2021/09/16 11:07:45;;;;;;;22.90;10.00;;;;;;;24.10;56.22;98699.97;113966;1191;96228;-70
2021/09/16 11:10:16;;;;;;;20.60;10.00;;;;;;;24.08;56.16;98701.39;113934;1191;109002;-71
2021/09/16 11:12:52;;;;;;;24.40;10.90;;;;;;;24.07;55.93;98701.48;113855;1193;96579;-71
2021/09/16 11:15:30;;;;;;;21.60;10.40;;;;;;;24.05;55.92;98693.58;113845;1191;107583;-71
2021/09/16 11:18:02;;;;;;;23.60;11.20;;;;;;;24.04;55.68;98691.98;113895;1193;94439;-70
2021/09/16 11:20:30;;;;;;;21.40;10.60;;;;;;;24.00;55.74;98694.75;113883;1191;96918;-71
2021/09/16 11:22:57;;;;;;;21.80;11.30;;;;;;;24.02;55.82;98689.74;113864;1193;110026;-71